createdAt,value
2017-04-11T00:01:10.455Z,1012.87
2017-04-11T00:02:10.390Z,1012.88
2017-04-11T00:03:10.328Z,1012.9
2017-04-11T00:04:10.263Z,1012.91
2017-04-11T00:05:10.202Z,1012.88
2017-04-11T00:06:10.141Z,1012.91
2017-04-11T00:07:10.078Z,1012.91
2017-04-11T00:08:10.014Z,1012.96
2017-04-11T00:09:09.952Z,1012.93
2017-04-11T00:10:09.901Z,1012.94
2017-04-11T00:11:09.827Z,1012.96
2017-04-11T00:12:09.764Z,1013
2017-04-11T00:13:09.703Z,1012.97
2017-04-11T00:14:09.689Z,1013
2017-04-11T00:15:09.577Z,1013.03
2017-04-11T00:16:09.515Z,1012.99
2017-04-11T00:17:09.451Z,1012.98
2017-04-11T00:18:09.392Z,1013.02
2017-04-11T00:19:09.327Z,1013
2017-04-11T00:20:09.266Z,1013
2017-04-11T00:21:09.204Z,1013.02
2017-04-11T00:22:09.139Z,1013.01
2017-04-11T00:23:09.078Z,1013.08
2017-04-11T00:24:09.016Z,1013.08
2017-04-11T00:25:08.954Z,1013.05
2017-04-11T00:26:08.891Z,1013.08
2017-04-11T00:27:08.829Z,1013.03
2017-04-11T00:28:08.767Z,1013.02
2017-04-11T00:29:08.706Z,1013.06
2017-04-11T00:30:08.640Z,1013.03
2017-04-11T00:31:08.579Z,1013.02
2017-04-11T00:32:08.515Z,1013.01
2017-04-11T00:33:08.454Z,1013
2017-04-11T00:34:08.392Z,1013
2017-04-11T00:35:08.329Z,1012.97
2017-04-11T00:36:08.267Z,1012.99
2017-04-11T00:37:08.354Z,1012.98
2017-04-11T00:38:08.142Z,1012.99
2017-04-11T00:39:08.080Z,1013
2017-04-11T00:40:08.017Z,1012.98
2017-04-11T00:41:07.955Z,1012.96
2017-04-11T00:42:07.893Z,1012.93
2017-04-11T00:43:07.832Z,1012.96
2017-04-11T00:44:07.768Z,1012.98
2017-04-11T00:45:07.705Z,1012.99
2017-04-11T00:46:07.676Z,1012.96
2017-04-11T00:47:07.581Z,1012.96
2017-04-11T00:48:07.517Z,1012.98
2017-04-11T00:49:07.456Z,1012.97
2017-04-11T00:50:07.396Z,1012.94
2017-04-11T00:51:07.331Z,1012.99
2017-04-11T00:52:07.268Z,1013.01
2017-04-11T00:53:07.205Z,1013.04
2017-04-11T00:54:07.144Z,1012.99
2017-04-11T00:55:07.081Z,1013.01
2017-04-11T00:56:07.018Z,1013.04
2017-04-11T00:57:06.958Z,1012.98
2017-04-11T00:58:06.897Z,1013
2017-04-11T00:59:06.831Z,1013.03
2017-04-11T01:00:06.790Z,1012.99
2017-04-11T01:01:06.707Z,1013
2017-04-11T01:02:06.644Z,1012.99
2017-04-11T01:03:06.582Z,1013.01
2017-04-11T01:04:06.518Z,1012.98
2017-04-11T01:05:06.456Z,1013.01
2017-04-11T01:06:06.393Z,1013.01
2017-04-11T01:07:06.333Z,1013.01
2017-04-11T01:08:06.433Z,1012.98
2017-04-11T01:09:06.207Z,1013.03
2017-04-11T01:10:06.143Z,1013.05
2017-04-11T01:11:06.081Z,1012.97
2017-04-11T01:12:06.029Z,1013.03
2017-04-11T01:13:05.958Z,1012.96
2017-04-11T01:14:05.894Z,1012.97
2017-04-11T01:15:05.862Z,1012.99
2017-04-11T01:16:05.770Z,1012.98
2017-04-11T01:17:05.707Z,1013.02
2017-04-11T01:18:05.643Z,1013.02
2017-04-11T01:19:05.583Z,1013.02
2017-04-11T01:20:05.521Z,1013
2017-04-11T01:21:05.457Z,1013.02
2017-04-11T01:22:05.396Z,1012.98
2017-04-11T01:23:05.333Z,1013.02
2017-04-11T01:24:05.271Z,1013.01
2017-04-11T01:25:05.207Z,1012.98
2017-04-11T01:26:05.145Z,1012.96
2017-04-11T01:27:05.083Z,1012.96
2017-04-11T01:28:05.020Z,1012.98
2017-04-11T01:29:04.958Z,1012.99
2017-04-11T01:30:04.895Z,1012.98
2017-04-11T01:31:04.833Z,1013.02
2017-04-11T01:32:04.769Z,1013.01
2017-04-11T01:33:04.707Z,1013.05
2017-04-11T01:34:04.646Z,1013.1
2017-04-11T01:35:04.582Z,1013.07
2017-04-11T01:36:04.522Z,1013.02
2017-04-11T01:37:04.458Z,1013.04
2017-04-11T01:38:04.397Z,1013.09
2017-04-11T01:39:04.333Z,1013.07
2017-04-11T01:40:04.275Z,1013.04
2017-04-11T01:41:04.209Z,1013.07
2017-04-11T01:42:04.146Z,1013.03
2017-04-11T01:43:04.084Z,1013.04
2017-04-11T01:44:04.021Z,1013.02
2017-04-11T01:45:03.959Z,1013.07
2017-04-11T01:46:03.897Z,1013.06
2017-04-11T01:47:03.834Z,1013.08
2017-04-11T01:48:03.772Z,1013.06
2017-04-11T01:49:03.709Z,1013.06
2017-04-11T01:50:03.646Z,1013.11
2017-04-11T01:51:03.585Z,1013.11
2017-04-11T01:52:03.522Z,1013.12
2017-04-11T01:53:03.460Z,1013.09
2017-04-11T01:54:03.396Z,1013.17
2017-04-11T01:55:03.335Z,1013.12
2017-04-11T01:56:03.274Z,1013.13
2017-04-11T01:57:03.208Z,1013.11
2017-04-11T01:58:03.146Z,1013.15
2017-04-11T01:59:03.087Z,1013.13
2017-04-11T02:00:03.023Z,1013.12
2017-04-11T02:01:02.970Z,1013.12
2017-04-11T02:02:02.897Z,1013.13
2017-04-11T02:03:02.839Z,1013.15
2017-04-11T02:04:02.773Z,1013.17
2017-04-11T02:05:02.707Z,1013.16
2017-04-11T02:06:02.646Z,1013.2
2017-04-11T02:07:02.584Z,1013.19
2017-04-11T02:08:02.522Z,1013.17
2017-04-11T02:09:02.460Z,1013.2
2017-04-11T02:10:02.397Z,1013.21
2017-04-11T02:11:02.339Z,1013.25
2017-04-11T02:12:02.272Z,1013.22
2017-04-11T02:13:02.210Z,1013.29
2017-04-11T02:14:02.149Z,1013.28
2017-04-11T02:15:02.084Z,1013.3
2017-04-11T02:16:02.022Z,1013.31
2017-04-11T02:17:01.958Z,1013.29
2017-04-11T02:18:01.898Z,1013.29
2017-04-11T02:19:01.834Z,1013.32
2017-04-11T02:20:02.122Z,1013.36
2017-04-11T02:21:01.711Z,1013.35
2017-04-11T02:22:01.647Z,1013.37
2017-04-11T02:23:01.584Z,1013.37
2017-04-11T02:24:01.523Z,1013.37
2017-04-11T02:25:01.479Z,1013.28
2017-04-11T02:26:01.398Z,1013.28
2017-04-11T02:27:01.335Z,1013.33
2017-04-11T02:28:01.271Z,1013.28
2017-04-11T02:29:01.210Z,1013.24
2017-04-11T02:30:01.148Z,1013.24
2017-04-11T02:31:01.085Z,1013.19
2017-04-11T02:32:01.023Z,1013.23
2017-04-11T02:33:00.961Z,1013.25
2017-04-11T02:34:00.896Z,1013.24
2017-04-11T02:35:00.835Z,1013.23
2017-04-11T02:36:00.774Z,1013.28
2017-04-11T02:37:00.710Z,1013.31
2017-04-11T02:38:00.647Z,1013.33
2017-04-11T02:39:00.585Z,1013.31
2017-04-11T02:40:00.523Z,1013.3
2017-04-11T02:41:00.458Z,1013.29
2017-04-11T02:42:00.397Z,1013.32
2017-04-11T02:43:00.335Z,1013.37
2017-04-11T02:44:00.273Z,1013.36
2017-04-11T02:45:00.209Z,1013.29
2017-04-11T02:46:00.146Z,1013.34
2017-04-11T02:47:00.085Z,1013.34
2017-04-11T02:48:00.023Z,1013.32
2017-04-11T02:48:59.960Z,1013.36
2017-04-11T02:49:59.897Z,1013.33
2017-04-11T02:50:59.834Z,1013.29
2017-04-11T02:51:59.772Z,1013.33
2017-04-11T02:52:59.711Z,1013.26
2017-04-11T02:53:59.652Z,1013.31
2017-04-11T02:54:59.585Z,1013.3
2017-04-11T02:55:59.522Z,1013.34
2017-04-11T02:56:59.459Z,1013.35
2017-04-11T02:57:59.397Z,1013.36
2017-04-11T02:58:59.335Z,1013.35
2017-04-11T02:59:59.273Z,1013.35
2017-04-11T03:00:59.210Z,1013.29
2017-04-11T03:01:59.151Z,1013.4
2017-04-11T03:02:59.084Z,1013.4
2017-04-11T03:03:59.021Z,1013.4
2017-04-11T03:04:58.960Z,1013.42
2017-04-11T03:05:58.897Z,1013.43
2017-04-11T03:06:58.834Z,1013.42
2017-04-11T03:07:58.772Z,1013.41
2017-04-11T03:08:58.712Z,1013.46
2017-04-11T03:09:58.685Z,1013.5
2017-04-11T03:10:58.585Z,1013.4
2017-04-11T03:11:58.525Z,1013.47
2017-04-11T03:12:58.461Z,1013.49
2017-04-11T03:13:58.396Z,1013.5
2017-04-11T03:14:58.336Z,1013.5
2017-04-11T03:15:58.273Z,1013.45
2017-04-11T03:16:58.212Z,1013.47
2017-04-11T03:17:58.147Z,1013.43
2017-04-11T03:18:58.086Z,1013.43
2017-04-11T03:19:58.027Z,1013.47
2017-04-11T03:20:57.959Z,1013.54
2017-04-11T03:21:57.896Z,1013.45
2017-04-11T03:22:57.836Z,1013.51
2017-04-11T03:23:57.773Z,1013.46
2017-04-11T03:24:57.709Z,1013.54
2017-04-11T03:25:57.646Z,1013.54
2017-04-11T03:26:57.585Z,1013.54
2017-04-11T03:27:57.522Z,1013.51
2017-04-11T03:28:57.459Z,1013.58
2017-04-11T03:29:57.397Z,1013.54
2017-04-11T03:30:57.335Z,1013.5
2017-04-11T03:31:57.271Z,1013.55
2017-04-11T03:32:57.213Z,1013.56
2017-04-11T03:33:57.146Z,1013.57
2017-04-11T03:34:57.083Z,1013.62
2017-04-11T03:35:57.021Z,1013.68
2017-04-11T03:36:56.959Z,1013.69
2017-04-11T03:37:56.896Z,1013.62
2017-04-11T03:38:56.872Z,1013.66
2017-04-11T03:39:56.771Z,1013.64
2017-04-11T03:40:56.708Z,1013.6
2017-04-11T03:41:56.658Z,1013.68
2017-04-11T03:42:56.583Z,1013.65
2017-04-11T03:43:56.521Z,1013.68
2017-04-11T03:44:56.460Z,1013.71
2017-04-11T03:45:56.399Z,1013.75
2017-04-11T03:46:56.333Z,1013.78
2017-04-11T03:47:56.271Z,1013.78
2017-04-11T03:48:56.208Z,1013.82
2017-04-11T03:49:56.146Z,1013.85
2017-04-11T03:50:56.083Z,1013.89
2017-04-11T03:51:56.020Z,1013.91
2017-04-11T03:52:55.958Z,1013.9
2017-04-11T03:53:55.894Z,1013.9
2017-04-11T03:54:55.833Z,1013.91
2017-04-11T03:55:55.769Z,1013.96
2017-04-11T03:56:55.706Z,1013.99
2017-04-11T03:57:55.643Z,1013.98
2017-04-11T03:58:55.582Z,1013.98
2017-04-11T03:59:55.519Z,1013.98
2017-04-11T04:00:55.458Z,1014.03
2017-04-11T04:01:55.394Z,1014.02
2017-04-11T04:02:55.332Z,1014.23
2017-04-11T04:03:55.268Z,1014.15
2017-04-11T04:04:55.208Z,1014.08
2017-04-11T04:05:55.144Z,1014.05
2017-04-11T04:06:55.082Z,1014.09
2017-04-11T04:07:55.020Z,1014.08
2017-04-11T04:08:54.956Z,1014.07
2017-04-11T04:09:54.893Z,1014.14
2017-04-11T04:10:54.835Z,1014.1
2017-04-11T04:11:54.769Z,1014.11
2017-04-11T04:12:54.705Z,1014.06
2017-04-11T04:13:54.643Z,1014.15
2017-04-11T04:14:54.580Z,1014.13
2017-04-11T04:15:54.518Z,1014.13
2017-04-11T04:16:54.456Z,1014.21
2017-04-11T04:17:54.393Z,1014.2
2017-04-11T04:18:54.331Z,1014.18
2017-04-11T04:19:54.267Z,1014.19
2017-04-11T04:20:54.205Z,1014.24
2017-04-11T04:21:54.141Z,1014.22
2017-04-11T04:22:54.079Z,1014.22
2017-04-11T04:23:54.026Z,1014.23
2017-04-11T04:24:53.955Z,1014.29
2017-04-11T04:25:54.055Z,1014.27
2017-04-11T04:26:53.828Z,1014.29
2017-04-11T04:27:53.767Z,1014.34
2017-04-11T04:28:53.705Z,1014.31
2017-04-11T04:29:53.642Z,1014.34
2017-04-11T04:30:53.579Z,1014.33
2017-04-11T04:31:53.515Z,1014.35
2017-04-11T04:32:53.453Z,1014.38
2017-04-11T04:33:53.391Z,1014.38
2017-04-11T04:34:53.328Z,1014.42
2017-04-11T04:35:53.267Z,1014.41
2017-04-11T04:36:53.204Z,1014.47
2017-04-11T04:37:53.141Z,1014.45
2017-04-11T04:38:53.078Z,1014.47
2017-04-11T04:39:53.014Z,1014.47
2017-04-11T04:40:52.955Z,1014.5
2017-04-11T04:41:52.890Z,1014.49
2017-04-11T04:42:52.828Z,1014.58
2017-04-11T04:43:52.766Z,1014.56
2017-04-11T04:44:52.703Z,1014.57
2017-04-11T04:45:52.639Z,1014.58
2017-04-11T04:46:52.578Z,1014.64
2017-04-11T04:47:52.516Z,1014.67
2017-04-11T04:48:52.453Z,1014.64
2017-04-11T04:49:52.390Z,1014.67
2017-04-11T04:50:52.328Z,1014.67
2017-04-11T04:51:52.266Z,1014.69
2017-04-11T04:52:52.202Z,1014.69
2017-04-11T04:53:52.140Z,1014.64
2017-04-11T04:54:52.078Z,1014.66
2017-04-11T04:55:52.262Z,1014.6
2017-04-11T04:56:51.952Z,1014.62
2017-04-11T04:57:51.890Z,1014.65
2017-04-11T04:58:51.827Z,1014.71
2017-04-11T04:59:51.767Z,1014.67
2017-04-11T05:00:51.701Z,1014.76
2017-04-11T05:01:51.637Z,1014.73
2017-04-11T05:02:51.575Z,1014.71
2017-04-11T05:03:51.512Z,1014.76
2017-04-11T05:04:51.449Z,1014.7
2017-04-11T05:05:51.389Z,1014.74
2017-04-11T05:06:51.324Z,1014.75
2017-04-11T05:07:51.263Z,1014.75
2017-04-11T05:08:51.209Z,1014.76
2017-04-11T05:09:51.136Z,1014.76
2017-04-11T05:10:51.074Z,1014.77
2017-04-11T05:11:51.018Z,1014.78
2017-04-11T05:12:50.949Z,1014.76
2017-04-11T05:13:50.887Z,1014.79
2017-04-11T05:14:50.825Z,1014.81
2017-04-11T05:15:50.761Z,1014.82
2017-04-11T05:16:50.699Z,1014.78
2017-04-11T05:17:50.635Z,1014.81
2017-04-11T05:18:50.572Z,1014.81
2017-04-11T05:19:50.510Z,1014.79
2017-04-11T05:20:50.448Z,1014.84
2017-04-11T05:21:50.385Z,1014.77
2017-04-11T05:22:50.322Z,1014.77
2017-04-11T05:23:50.259Z,1014.8
2017-04-11T05:24:50.197Z,1014.81
2017-04-11T05:25:50.134Z,1014.84
2017-04-11T05:26:50.072Z,1014.9
2017-04-11T05:27:50.011Z,1014.85
2017-04-11T05:28:49.945Z,1014.86
2017-04-11T05:29:49.883Z,1014.81
2017-04-11T05:30:49.821Z,1014.85
2017-04-11T05:31:49.761Z,1014.87
2017-04-11T05:32:49.695Z,1014.79
2017-04-11T05:33:49.632Z,1014.89
2017-04-11T05:34:49.570Z,1014.88
2017-04-11T05:35:49.508Z,1014.87
2017-04-11T05:36:49.445Z,1014.83
2017-04-11T05:37:49.382Z,1014.94
2017-04-11T05:38:49.318Z,1014.87
2017-04-11T05:39:49.256Z,1014.88
2017-04-11T05:40:49.194Z,1014.9
2017-04-11T05:41:49.131Z,1014.87
2017-04-11T05:42:49.069Z,1014.89
2017-04-11T05:43:49.005Z,1015.01
2017-04-11T05:44:48.942Z,1014.97
2017-04-11T05:45:48.880Z,1014.92
2017-04-11T05:46:48.818Z,1014.97
2017-04-11T05:47:48.755Z,1014.99
2017-04-11T05:48:48.690Z,1014.99
2017-04-11T05:49:48.632Z,1014.98
2017-04-11T05:50:48.565Z,1014.97
2017-04-11T05:51:48.503Z,1014.99
2017-04-11T05:52:48.440Z,1015.03
2017-04-11T05:53:48.379Z,1015.05
2017-04-11T05:54:48.316Z,1015.05
2017-04-11T05:55:48.251Z,1015.07
2017-04-11T05:56:48.189Z,1015.09
2017-04-11T05:57:48.127Z,1015.1
2017-04-11T05:58:48.064Z,1015.1
2017-04-11T05:59:48.001Z,1015.15
2017-04-11T06:00:47.939Z,1015.08
2017-04-11T06:01:47.875Z,1015.13
2017-04-11T06:02:47.812Z,1015.15
2017-04-11T06:03:47.754Z,1015.16
2017-04-11T06:04:47.688Z,1015.2
2017-04-11T06:05:47.624Z,1015.17
2017-04-11T06:06:47.563Z,1015.17
2017-04-11T06:07:47.499Z,1015.19
2017-04-11T06:08:47.439Z,1015.18
2017-04-11T06:09:47.374Z,1015.23
2017-04-11T06:10:47.312Z,1015.23
2017-04-11T06:11:47.248Z,1015.28
2017-04-11T06:12:47.184Z,1015.19
2017-04-11T06:13:47.122Z,1015.27
2017-04-11T06:14:47.060Z,1015.13
2017-04-11T06:15:47.006Z,1015.24
2017-04-11T06:16:46.934Z,1015.2
2017-04-11T06:17:46.872Z,1015.26
2017-04-11T06:18:46.809Z,1015.26
2017-04-11T06:19:46.748Z,1015.32
2017-04-11T06:20:46.682Z,1015.27
2017-04-11T06:21:46.620Z,1015.27
2017-04-11T06:22:46.560Z,1015.33
2017-04-11T06:23:46.495Z,1015.32
2017-04-11T06:24:46.433Z,1015.3
2017-04-11T06:25:46.369Z,1015.32
2017-04-11T06:26:46.308Z,1015.28
2017-04-11T06:27:46.244Z,1015.3
2017-04-11T06:28:46.191Z,1015.3
2017-04-11T06:29:46.119Z,1015.37
2017-04-11T06:30:46.055Z,1015.39
2017-04-11T06:31:45.993Z,1015.34
2017-04-11T06:32:45.930Z,1015.42
2017-04-11T06:33:45.867Z,1015.41
2017-04-11T06:34:45.806Z,1015.5
2017-04-11T06:35:45.742Z,1015.47
2017-04-11T06:36:45.680Z,1015.48
2017-04-11T06:37:45.617Z,1015.51
2017-04-11T06:38:45.553Z,1015.49
2017-04-11T06:39:45.491Z,1015.54
2017-04-11T06:40:45.429Z,1015.54
2017-04-11T06:41:45.365Z,1015.46
2017-04-11T06:42:45.302Z,1015.52
2017-04-11T06:43:45.239Z,1015.51
2017-04-11T06:44:45.182Z,1015.49
2017-04-11T06:45:45.113Z,1015.52
2017-04-11T06:46:45.050Z,1015.48
2017-04-11T06:47:44.989Z,1015.46
2017-04-11T06:48:44.926Z,1015.5
2017-04-11T06:49:44.864Z,1015.5
2017-04-11T06:50:44.800Z,1015.49
2017-04-11T06:51:44.737Z,1015.44
2017-04-11T06:52:44.672Z,1015.48
2017-04-11T06:53:44.611Z,1015.46
2017-04-11T06:54:44.548Z,1015.48
2017-04-11T06:55:44.488Z,1015.45
2017-04-11T06:56:44.422Z,1015.41
2017-04-11T06:57:44.360Z,1015.41
2017-04-11T06:58:44.298Z,1015.33
2017-04-11T06:59:44.234Z,1015.32
2017-04-11T07:00:44.171Z,1015.32
2017-04-11T07:01:44.109Z,1015.29
2017-04-11T07:02:44.046Z,1015.39
2017-04-11T07:03:43.983Z,1015.41
2017-04-11T07:04:43.920Z,1015.39
2017-04-11T07:05:43.856Z,1015.38
2017-04-11T07:06:43.795Z,1015.43
2017-04-11T07:07:43.733Z,1015.38
2017-04-11T07:08:43.673Z,1015.34
2017-04-11T07:09:43.606Z,1015.42
2017-04-11T07:10:43.544Z,1015.37
2017-04-11T07:11:43.480Z,1015.39
2017-04-11T07:12:43.417Z,1015.37
2017-04-11T07:13:43.354Z,1015.35
2017-04-11T07:14:43.291Z,1015.28
2017-04-11T07:15:43.229Z,1015.4
2017-04-11T07:16:43.166Z,1015.35
2017-04-11T07:17:43.103Z,1015.32
2017-04-11T07:18:43.040Z,1015.35
2017-04-11T07:19:42.976Z,1015.34
2017-04-11T07:20:43.265Z,1015.27
2017-04-11T07:21:42.850Z,1015.32
2017-04-11T07:22:42.788Z,1015.37
2017-04-11T07:23:42.725Z,1015.31
2017-04-11T07:24:42.669Z,1015.3
2017-04-11T07:25:42.599Z,1015.32
2017-04-11T07:26:42.537Z,1015.36
2017-04-11T07:27:42.474Z,1015.32
2017-04-11T07:28:42.414Z,1015.35
2017-04-11T07:29:42.348Z,1015.27
2017-04-11T07:30:42.286Z,1015.26
2017-04-11T07:31:42.223Z,1015.35
2017-04-11T07:32:42.161Z,1015.26
2017-04-11T07:33:42.097Z,1015.38
2017-04-11T07:34:42.042Z,1015.41
2017-04-11T07:35:41.971Z,1015.46
2017-04-11T07:36:41.908Z,1015.43
2017-04-11T07:37:41.845Z,1015.48
2017-04-11T07:38:41.806Z,1015.39
2017-04-11T07:39:41.721Z,1015.43
2017-04-11T07:40:41.657Z,1015.42
2017-04-11T07:41:41.594Z,1015.42
2017-04-11T07:42:41.547Z,1015.41
2017-04-11T07:43:41.468Z,1015.38
2017-04-11T07:44:41.406Z,1015.41
2017-04-11T07:45:41.343Z,1015.43
2017-04-11T07:46:41.281Z,1015.4
2017-04-11T07:47:41.217Z,1015.44
2017-04-11T07:48:41.154Z,1015.46
2017-04-11T07:49:41.092Z,1015.46
2017-04-11T07:50:41.027Z,1015.5
2017-04-11T07:51:40.966Z,1015.52
2017-04-11T07:52:40.901Z,1015.59
2017-04-11T07:53:40.840Z,1015.47
2017-04-11T07:54:40.777Z,1015.44
2017-04-11T07:55:40.714Z,1015.46
2017-04-11T07:56:40.664Z,1015.46
2017-04-11T07:57:40.590Z,1015.52
2017-04-11T07:58:40.526Z,1015.53
2017-04-11T07:59:40.463Z,1015.57
2017-04-11T08:00:40.701Z,1015.58
2017-04-11T08:01:40.338Z,1015.62
2017-04-11T08:02:40.275Z,1015.61
2017-04-11T08:03:40.212Z,1015.61
2017-04-11T08:04:40.149Z,1015.62
2017-04-11T08:05:40.104Z,1015.62
2017-04-11T08:06:40.024Z,1015.61
2017-04-11T08:07:39.961Z,1015.67
2017-04-11T08:08:39.898Z,1015.65
2017-04-11T08:09:39.835Z,1015.66
2017-04-11T08:10:39.773Z,1015.65
2017-04-11T08:11:39.710Z,1015.61
2017-04-11T08:12:39.647Z,1015.71
2017-04-11T08:13:39.582Z,1015.64
2017-04-11T08:14:39.521Z,1015.71
2017-04-11T08:15:39.459Z,1015.64
2017-04-11T08:16:39.397Z,1015.72
2017-04-11T08:17:39.331Z,1015.7
2017-04-11T08:18:39.269Z,1015.68
2017-04-11T08:19:39.207Z,1015.71
2017-04-11T08:20:39.144Z,1015.74
2017-04-11T08:21:39.082Z,1015.72
2017-04-11T08:22:39.029Z,1015.72
2017-04-11T08:23:38.958Z,1015.76
2017-04-11T08:24:38.893Z,1015.65
2017-04-11T08:25:38.831Z,1015.71
2017-04-11T08:26:38.767Z,1015.68
2017-04-11T08:27:38.703Z,1015.67
2017-04-11T08:28:38.641Z,1015.71
2017-04-11T08:29:38.579Z,1015.64
2017-04-11T08:30:38.518Z,1015.73
2017-04-11T08:31:38.456Z,1015.66
2017-04-11T08:32:38.391Z,1015.7
2017-04-11T08:33:38.328Z,1015.73
2017-04-11T08:34:38.265Z,1015.76
2017-04-11T08:35:38.202Z,1015.76
2017-04-11T08:36:38.139Z,1015.76
2017-04-11T08:37:38.075Z,1015.78
2017-04-11T08:38:38.026Z,1015.78
2017-04-11T08:39:37.951Z,1015.73
2017-04-11T08:40:37.888Z,1015.8
2017-04-11T08:41:37.825Z,1015.77
2017-04-11T08:42:37.763Z,1015.76
2017-04-11T08:43:37.700Z,1015.77
2017-04-11T08:44:37.638Z,1015.74
2017-04-11T08:45:37.594Z,1015.64
2017-04-11T08:46:37.510Z,1015.63
2017-04-11T08:47:37.449Z,1015.68
2017-04-11T08:48:37.389Z,1015.68
2017-04-11T08:49:37.326Z,1015.72
2017-04-11T08:50:37.260Z,1015.69
2017-04-11T08:51:37.198Z,1015.7
2017-04-11T08:52:37.135Z,1015.69
2017-04-11T08:53:37.072Z,1015.72
2017-04-11T08:54:37.017Z,1015.75
2017-04-11T08:55:36.947Z,1015.73
2017-04-11T08:56:36.886Z,1015.77
2017-04-11T08:57:37.037Z,1015.88
2017-04-11T08:58:36.759Z,1015.85
2017-04-11T08:59:36.697Z,1015.95
2017-04-11T09:00:36.633Z,1016.08
2017-04-11T09:01:36.569Z,1016.15
2017-04-11T09:02:36.508Z,1016.13
2017-04-11T09:03:36.446Z,1016.14
2017-04-11T09:04:36.384Z,1016.16
2017-04-11T09:05:36.321Z,1016.16
2017-04-11T09:06:36.257Z,1016.11
2017-04-11T09:07:36.195Z,1016.08
2017-04-11T09:08:36.133Z,1016
2017-04-11T09:09:36.068Z,1016.02
2017-04-11T09:10:36.008Z,1016.03
2017-04-11T09:11:35.944Z,1016.04
2017-04-11T09:12:35.882Z,1016.12
2017-04-11T09:13:35.819Z,1016.19
2017-04-11T09:14:35.757Z,1016.15
2017-04-11T09:15:35.693Z,1016.17
2017-04-11T09:16:35.631Z,1016.17
2017-04-11T09:17:35.569Z,1016.2
2017-04-11T09:18:35.507Z,1016.16
2017-04-11T09:19:35.450Z,1016.11
2017-04-11T09:20:35.380Z,1016.21
2017-04-11T09:21:35.318Z,1016.19
2017-04-11T09:22:35.257Z,1016.19
2017-04-11T09:23:35.193Z,1016.15
2017-04-11T09:24:35.131Z,1016.14
2017-04-11T09:25:35.219Z,1016.15
2017-04-11T09:26:35.004Z,1016.16
2017-04-11T09:27:34.947Z,1016.16
2017-04-11T09:28:34.881Z,1016.18
2017-04-11T09:29:34.819Z,1016.24
2017-04-11T09:30:35.007Z,1016.26
2017-04-11T09:31:34.695Z,1016.26
2017-04-11T09:32:34.632Z,1016.23
2017-04-11T09:33:34.569Z,1016.29
2017-04-11T09:34:34.507Z,1016.28
2017-04-11T09:35:34.444Z,1016.35
2017-04-11T09:36:34.383Z,1016.5
2017-04-11T09:37:34.320Z,1016.41
2017-04-11T09:38:34.257Z,1016.43
2017-04-11T09:39:34.194Z,1016.48
2017-04-11T09:40:34.132Z,1016.48
2017-04-11T09:41:34.070Z,1016.45
2017-04-11T09:42:34.008Z,1016.58
2017-04-11T09:43:33.945Z,1016.56
2017-04-11T09:44:33.883Z,1016.53
2017-04-11T09:45:33.820Z,1016.55
2017-04-11T09:46:33.758Z,1016.58
2017-04-11T09:47:33.696Z,1016.61
2017-04-11T09:48:33.633Z,1016.54
2017-04-11T09:49:33.571Z,1016.65
2017-04-11T09:50:33.509Z,1016.52
2017-04-11T09:51:33.445Z,1016.44
2017-04-11T09:52:33.384Z,1016.39
2017-04-11T09:53:33.322Z,1016.38
2017-04-11T09:54:33.261Z,1016.34
2017-04-11T09:55:33.196Z,1016.37
2017-04-11T09:56:33.133Z,1016.38
2017-04-11T09:57:33.072Z,1016.32
2017-04-11T09:58:33.010Z,1016.32
2017-04-11T09:59:32.947Z,1016.33
2017-04-11T10:00:32.885Z,1016.39
2017-04-11T10:01:32.835Z,1016.32
2017-04-11T10:02:32.759Z,1016.37
2017-04-11T10:03:32.697Z,1016.39
2017-04-11T10:04:32.635Z,1016.46
2017-04-11T10:05:32.582Z,1016.4
2017-04-11T10:06:32.509Z,1016.41
2017-04-11T10:07:32.448Z,1016.34
2017-04-11T10:08:32.386Z,1016.36
2017-04-11T10:09:32.323Z,1016.28
2017-04-11T10:10:32.259Z,1016.31
2017-04-11T10:11:32.198Z,1016.34
2017-04-11T10:12:32.136Z,1016.31
2017-04-11T10:13:32.072Z,1016.27
2017-04-11T10:14:32.010Z,1016.34
2017-04-11T10:15:31.947Z,1016.18
2017-04-11T10:16:31.885Z,1016.35
2017-04-11T10:17:31.834Z,1016.25
2017-04-11T10:18:31.764Z,1016.23
2017-04-11T10:19:31.699Z,1016.22
2017-04-11T10:20:31.638Z,1016.22
2017-04-11T10:21:31.574Z,1016.22
2017-04-11T10:22:31.511Z,1016.19
2017-04-11T10:23:31.450Z,1016.2
2017-04-11T10:24:31.384Z,1016.14
2017-04-11T10:25:31.324Z,1016.17
2017-04-11T10:26:31.262Z,1016.13
2017-04-11T10:27:31.200Z,1016.13
2017-04-11T10:28:31.136Z,1016.13
2017-04-11T10:29:31.075Z,1016.12
2017-04-11T10:30:31.010Z,1016.1
2017-04-11T10:31:30.949Z,1016.1
2017-04-11T10:32:30.888Z,1016.16
2017-04-11T10:33:30.823Z,1016.11
2017-04-11T10:34:30.761Z,1016.21
2017-04-11T10:35:30.699Z,1016.21
2017-04-11T10:36:30.636Z,1016.19
2017-04-11T10:37:30.575Z,1016.22
2017-04-11T10:38:30.512Z,1016.24
2017-04-11T10:39:30.449Z,1016.18
2017-04-11T10:40:30.388Z,1016.21
2017-04-11T10:41:30.330Z,1016.22
2017-04-11T10:42:30.262Z,1016.18
2017-04-11T10:43:30.200Z,1016.14
2017-04-11T10:44:30.137Z,1016.17
2017-04-11T10:45:30.077Z,1016.18
2017-04-11T10:46:30.010Z,1016.23
2017-04-11T10:47:29.950Z,1016.2
2017-04-11T10:48:29.888Z,1016.22
2017-04-11T10:49:29.825Z,1016.25
2017-04-11T10:50:29.762Z,1016.24
2017-04-11T10:51:29.739Z,1016.27
2017-04-11T10:52:29.638Z,1016.17
2017-04-11T10:53:29.574Z,1016.3
2017-04-11T10:54:29.512Z,1016.33
2017-04-11T10:55:29.448Z,1016.31
2017-04-11T10:56:29.387Z,1016.34
2017-04-11T10:57:29.324Z,1016.33
2017-04-11T10:58:29.262Z,1016.32
2017-04-11T10:59:29.202Z,1016.42
2017-04-11T11:00:29.603Z,1016.43
2017-04-11T11:01:29.074Z,1016.41
2017-04-11T11:02:29.011Z,1016.42
2017-04-11T11:03:28.948Z,1016.43
2017-04-11T11:04:28.887Z,1016.45
2017-04-11T11:05:28.824Z,1016.51
2017-04-11T11:06:28.763Z,1016.49
2017-04-11T11:07:28.699Z,1016.51
2017-04-11T11:08:28.636Z,1016.53
2017-04-11T11:09:28.574Z,1016.47
2017-04-11T11:10:28.511Z,1016.5
2017-04-11T11:11:28.449Z,1016.46
2017-04-11T11:12:28.386Z,1016.42
2017-04-11T11:13:28.323Z,1016.45
2017-04-11T11:14:28.261Z,1016.42
2017-04-11T11:15:28.198Z,1016.41
2017-04-11T11:16:28.135Z,1016.36
2017-04-11T11:17:28.073Z,1016.4
2017-04-11T11:18:28.011Z,1016.46
2017-04-11T11:19:27.948Z,1016.44
2017-04-11T11:20:27.885Z,1016.41
2017-04-11T11:21:27.822Z,1016.52
2017-04-11T11:22:27.760Z,1016.46
2017-04-11T11:23:27.695Z,1016.59
2017-04-11T11:24:27.636Z,1016.63
2017-04-11T11:25:27.571Z,1016.69
2017-04-11T11:26:27.506Z,1016.89
2017-04-11T11:27:27.444Z,1016.93
2017-04-11T11:28:27.386Z,1016.92
2017-04-11T11:29:27.319Z,1016.95
2017-04-11T11:30:27.257Z,1017
2017-04-11T11:31:27.194Z,1016.98
2017-04-11T11:32:27.131Z,1016.97
2017-04-11T11:33:27.068Z,1016.98
2017-04-11T11:34:27.004Z,1016.95
2017-04-11T11:35:26.943Z,1016.95
2017-04-11T11:36:26.880Z,1016.93
2017-04-11T11:37:26.815Z,1016.93
2017-04-11T11:38:26.752Z,1016.94
2017-04-11T11:39:26.690Z,1016.91
2017-04-11T11:40:26.627Z,1016.93
2017-04-11T11:41:26.563Z,1016.91
2017-04-11T11:42:26.501Z,1016.85
2017-04-11T11:43:26.437Z,1016.89
2017-04-11T11:44:26.376Z,1016.89
2017-04-11T11:45:26.312Z,1016.91
2017-04-11T11:46:26.249Z,1016.96
2017-04-11T11:47:26.186Z,1016.96
2017-04-11T11:48:26.121Z,1017.14
2017-04-11T11:49:26.059Z,1017.05
2017-04-11T11:50:26.018Z,1016.94
2017-04-11T11:51:25.934Z,1016.91
2017-04-11T11:52:25.869Z,1016.89
2017-04-11T11:53:25.806Z,1016.79
2017-04-11T11:54:25.743Z,1016.78
2017-04-11T11:55:25.681Z,1016.8
2017-04-11T11:56:25.617Z,1016.72
2017-04-11T11:57:25.554Z,1016.76
2017-04-11T11:58:25.491Z,1016.5
2017-04-11T11:59:25.427Z,1016.59
2017-04-11T12:00:25.364Z,1016.54
2017-04-11T12:01:25.302Z,1016.59
2017-04-11T12:02:25.238Z,1016.59
2017-04-11T12:03:25.174Z,1016.67
2017-04-11T12:04:25.110Z,1016.6
2017-04-11T12:05:25.050Z,1016.62
2017-04-11T12:06:24.989Z,1016.6
2017-04-11T12:07:24.922Z,1016.65
2017-04-11T12:08:24.860Z,1016.66